createdAt,value
2022-10-04T00:03:02.130Z,11.06
2022-10-04T00:06:09.484Z,11.03
2022-10-04T00:09:17.028Z,10.99
2022-10-04T00:12:24.530Z,10.95
2022-10-04T00:15:32.151Z,10.89
2022-10-04T00:18:40.119Z,10.78
2022-10-04T00:21:47.567Z,10.66
2022-10-04T00:24:55.123Z,10.60
2022-10-04T00:28:03.214Z,10.52
2022-10-04T00:31:10.717Z,10.46
2022-10-04T00:34:18.297Z,10.37
2022-10-04T00:37:26.189Z,10.32
2022-10-04T00:40:33.355Z,10.24
2022-10-04T00:43:41.386Z,10.22
2022-10-04T00:46:49.148Z,10.21
2022-10-04T00:49:56.569Z,10.22
2022-10-04T00:53:04.878Z,10.25
2022-10-04T00:56:13.262Z,10.28
2022-10-04T00:59:20.731Z,10.28
2022-10-04T01:02:28.863Z,10.25
2022-10-04T01:05:37.255Z,10.25
2022-10-04T01:08:44.678Z,10.26
2022-10-04T01:11:52.952Z,10.30
2022-10-04T01:15:00.857Z,10.33
2022-10-04T01:18:09.603Z,10.30
2022-10-04T01:21:17.885Z,10.28
2022-10-04T01:24:25.797Z,10.26
2022-10-04T01:27:33.636Z,10.28
2022-10-04T01:30:41.469Z,10.28
2022-10-04T01:33:49.850Z,10.25
2022-10-04T01:36:57.737Z,10.25
2022-10-04T01:40:05.191Z,10.32
2022-10-04T01:43:13.429Z,10.30
2022-10-04T01:46:21.379Z,10.33
2022-10-04T01:49:29.185Z,10.33
2022-10-04T01:52:37.451Z,10.32
2022-10-04T01:55:44.902Z,10.34
2022-10-04T01:58:53.173Z,10.28
2022-10-04T02:02:01.513Z,10.25
2022-10-04T02:05:09.078Z,10.28
2022-10-04T02:08:17.396Z,10.30
2022-10-04T02:11:25.770Z,10.30
2022-10-04T02:14:33.432Z,10.26
2022-10-04T02:17:42.236Z,10.22
2022-10-04T02:20:49.983Z,10.24
2022-10-04T02:23:58.007Z,10.22
2022-10-04T02:27:06.159Z,10.24
2022-10-04T02:30:13.941Z,10.26
2022-10-04T02:33:21.459Z,10.30
2022-10-04T02:36:29.224Z,10.24
2022-10-04T02:39:37.547Z,10.25
2022-10-04T02:42:45.306Z,10.24
2022-10-04T02:45:52.910Z,10.24
2022-10-04T02:49:01.103Z,10.24
2022-10-04T02:52:08.524Z,10.24
2022-10-04T02:55:16.915Z,10.28
2022-10-04T02:58:25.020Z,10.28
2022-10-04T03:01:32.395Z,10.26
2022-10-04T03:04:40.587Z,10.28
2022-10-04T03:07:48.697Z,10.32
2022-10-04T03:10:56.114Z,10.28
2022-10-04T03:14:03.899Z,10.30
2022-10-04T03:17:11.813Z,10.34
2022-10-04T03:20:19.887Z,10.39
2022-10-04T03:23:28.300Z,10.40
2022-10-04T03:26:36.111Z,10.42
2022-10-04T03:29:43.960Z,10.40
2022-10-04T03:32:52.165Z,10.40
2022-10-04T03:36:00.173Z,10.39
2022-10-04T03:39:08.108Z,10.43
2022-10-04T03:42:15.836Z,10.43
2022-10-04T03:45:24.349Z,10.46
2022-10-04T03:48:32.277Z,10.47
2022-10-04T03:51:40.515Z,10.46
2022-10-04T03:54:49.052Z,10.44
2022-10-04T03:57:56.931Z,10.43
2022-10-04T04:01:04.718Z,10.43
2022-10-04T04:04:12.291Z,10.43
2022-10-04T04:07:19.789Z,10.44
2022-10-04T04:10:28.092Z,10.47
2022-10-04T04:13:36.136Z,10.53
2022-10-04T04:16:44.141Z,10.53
2022-10-04T04:19:52.272Z,10.52
2022-10-04T04:23:00.146Z,10.52
2022-10-04T04:26:07.944Z,10.47
2022-10-04T04:29:16.426Z,10.47
2022-10-04T04:32:23.984Z,10.47
2022-10-04T04:35:32.284Z,10.46
2022-10-04T04:38:40.541Z,10.46
2022-10-04T04:41:50.588Z,10.47
2022-10-04T04:44:48.501Z,10.47
2022-10-04T04:47:56.871Z,10.47
2022-10-04T04:51:04.386Z,10.53
2022-10-04T04:54:12.663Z,10.51
2022-10-04T04:57:21.021Z,10.43
2022-10-04T05:00:28.702Z,10.46
2022-10-04T05:03:36.921Z,10.47
2022-10-04T05:06:45.215Z,10.47
2022-10-04T05:09:53.383Z,10.47
2022-10-04T05:13:01.616Z,10.51
2022-10-04T05:16:09.617Z,10.53
2022-10-04T05:19:17.683Z,10.55
2022-10-04T05:22:25.836Z,10.58
2022-10-04T05:25:34.067Z,10.58
2022-10-04T05:28:42.358Z,10.59
2022-10-04T05:31:50.401Z,10.60
2022-10-04T05:34:58.269Z,10.65
2022-10-04T05:38:06.594Z,10.66
2022-10-04T05:41:14.501Z,10.70
2022-10-04T05:44:22.280Z,10.70
2022-10-04T05:47:30.362Z,10.74
2022-10-04T05:50:38.013Z,10.77
2022-10-04T05:53:45.691Z,10.78
2022-10-04T05:56:53.534Z,10.80
2022-10-04T06:00:04.400Z,10.78
2022-10-04T06:03:01.627Z,10.77
2022-10-04T06:06:09.421Z,10.76
2022-10-04T06:09:17.267Z,10.76
2022-10-04T06:12:25.130Z,10.78
2022-10-04T06:15:32.907Z,10.83
2022-10-04T06:18:41.107Z,10.84
2022-10-04T06:21:48.969Z,10.88
2022-10-04T06:24:56.729Z,10.89
2022-10-04T06:28:05.211Z,10.95
2022-10-04T06:31:13.156Z,10.99
2022-10-04T06:34:21.015Z,11.06
2022-10-04T06:37:29.113Z,11.06
2022-10-04T06:40:36.804Z,11.11
2022-10-04T06:43:44.575Z,11.19
2022-10-04T06:46:52.516Z,11.29
2022-10-04T06:50:00.215Z,11.38
2022-10-04T06:53:07.886Z,11.43
2022-10-04T06:56:15.937Z,11.53
2022-10-04T06:59:24.270Z,11.65
2022-10-04T07:02:32.088Z,11.75
2022-10-04T07:05:39.729Z,11.82
2022-10-04T07:08:47.751Z,11.87
2022-10-04T07:11:55.719Z,11.99
2022-10-04T07:15:03.451Z,12.06
2022-10-04T07:18:11.171Z,12.15
2022-10-04T07:21:18.852Z,12.26
2022-10-04T07:24:27.214Z,12.37
2022-10-04T07:27:35.105Z,12.42
2022-10-04T07:30:43.007Z,12.51
2022-10-04T07:33:51.016Z,12.56
2022-10-04T07:36:58.965Z,12.56
2022-10-04T07:40:06.825Z,12.57
2022-10-04T07:43:15.348Z,12.56
2022-10-04T07:46:22.973Z,12.49
2022-10-04T07:49:31.139Z,12.45
2022-10-04T07:52:39.092Z,12.49
2022-10-04T07:55:46.443Z,12.59
2022-10-04T07:58:54.521Z,12.64
2022-10-04T08:02:03.001Z,12.78
2022-10-04T08:05:10.493Z,12.85
2022-10-04T08:08:18.688Z,13.02
2022-10-04T08:11:26.725Z,13.17
2022-10-04T08:14:34.429Z,13.25
2022-10-04T08:17:42.499Z,13.40
2022-10-04T08:20:50.218Z,13.51
2022-10-04T08:23:57.928Z,13.70
2022-10-04T08:27:06.279Z,13.84
2022-10-04T08:30:14.310Z,13.94
2022-10-04T08:33:22.137Z,14.02
2022-10-04T08:36:29.929Z,14.10
2022-10-04T08:39:38.043Z,14.13
2022-10-04T08:42:46.054Z,14.24
2022-10-04T08:45:54.072Z,14.37
2022-10-04T08:49:01.915Z,14.43
2022-10-04T08:52:10.186Z,14.38
2022-10-04T08:55:17.597Z,14.39
2022-10-04T08:58:25.277Z,14.35
2022-10-04T09:01:33.358Z,14.34
2022-10-04T09:04:41.479Z,14.28
2022-10-04T09:07:49.319Z,14.27
2022-10-04T09:10:57.162Z,14.20
2022-10-04T09:14:05.040Z,14.19
2022-10-04T09:17:12.816Z,14.21
2022-10-04T09:20:37.750Z,14.35
2022-10-04T09:23:25.844Z,14.43
2022-10-04T09:26:33.333Z,14.56
2022-10-04T09:29:41.626Z,14.67
2022-10-04T09:32:49.829Z,14.78
2022-10-04T09:35:57.307Z,14.88
2022-10-04T09:39:29.064Z,14.94
2022-10-04T09:42:11.006Z,14.98
2022-10-04T09:45:18.549Z,14.95
2022-10-04T09:48:26.874Z,15.02
2022-10-04T09:51:34.792Z,15.17
2022-10-04T09:54:44.426Z,15.28
2022-10-04T09:57:52.515Z,15.39
2022-10-04T10:01:00.441Z,15.41
2022-10-04T10:04:08.875Z,15.52
2022-10-04T10:07:17.304Z,15.60
2022-10-04T10:10:24.808Z,15.68
2022-10-04T10:13:32.937Z,15.86
2022-10-04T10:16:32.778Z,16.16
2022-10-04T10:19:40.593Z,16.41
2022-10-04T10:22:48.791Z,16.59
2022-10-04T10:25:56.471Z,16.70
2022-10-04T10:29:04.411Z,16.80
2022-10-04T10:32:11.959Z,16.95
2022-10-04T10:35:19.687Z,17.13
2022-10-04T10:38:27.604Z,17.25
2022-10-04T10:41:35.556Z,17.41
2022-10-04T10:44:43.436Z,17.67
2022-10-04T10:47:51.628Z,17.81
2022-10-04T10:50:59.419Z,17.79
2022-10-04T10:54:07.308Z,17.84
2022-10-04T10:57:15.143Z,17.85
2022-10-04T11:00:23.433Z,17.97
2022-10-04T11:03:32.551Z,18.00
2022-10-04T11:06:40.953Z,17.89
2022-10-04T11:09:49.447Z,17.94
2022-10-04T11:12:57.787Z,18.18
2022-10-04T11:16:05.523Z,18.28
2022-10-04T11:19:14.189Z,18.40
2022-10-04T11:22:21.939Z,18.54
2022-10-04T11:25:31.030Z,18.44
2022-10-04T11:28:39.547Z,18.40
2022-10-04T11:31:47.321Z,18.31
2022-10-04T11:34:55.913Z,18.21
2022-10-04T11:38:04.794Z,18.12
2022-10-04T11:41:12.564Z,18.07
2022-10-04T11:44:21.247Z,18.00
2022-10-04T11:47:29.477Z,17.89
2022-10-04T11:50:37.387Z,17.84
2022-10-04T11:53:45.978Z,17.81
2022-10-04T11:56:53.687Z,17.84
2022-10-04T12:00:02.180Z,17.87
2022-10-04T12:03:10.963Z,17.85
2022-10-04T12:06:18.692Z,17.85
2022-10-04T12:09:27.277Z,17.82
2022-10-04T12:12:35.699Z,17.85
2022-10-04T12:15:43.831Z,17.82
2022-10-04T12:18:52.155Z,17.79
2022-10-04T12:22:00.538Z,17.71
2022-10-04T12:25:46.501Z,17.62
2022-10-04T12:28:56.761Z,17.63
2022-10-04T12:32:05.060Z,17.71
2022-10-04T12:35:13.597Z,17.74
2022-10-04T12:38:21.485Z,17.79
2022-10-04T12:41:30.268Z,17.78
2022-10-04T12:44:38.679Z,17.73
2022-10-04T12:47:46.447Z,17.71
2022-10-04T12:50:54.899Z,17.95
2022-10-04T12:54:02.926Z,18.13
2022-10-04T12:57:11.032Z,18.28
2022-10-04T13:00:19.630Z,18.29
2022-10-04T13:03:28.104Z,18.36
2022-10-04T13:06:41.151Z,18.33
2022-10-04T13:09:41.014Z,18.25
2022-10-04T13:12:48.836Z,18.31
2022-10-04T13:19:06.033Z,18.25
2022-10-04T13:22:06.677Z,18.13
2022-10-04T13:25:14.990Z,17.97
2022-10-04T13:28:23.339Z,17.91
2022-10-04T13:31:31.767Z,17.89
2022-10-04T13:34:40.328Z,17.89
2022-10-04T13:37:48.163Z,17.91
2022-10-04T13:40:56.675Z,17.87
2022-10-04T13:44:05.266Z,17.85
2022-10-04T13:47:13.136Z,17.87
2022-10-04T13:50:21.977Z,17.89
2022-10-04T13:53:29.859Z,17.94
2022-10-04T13:56:38.586Z,17.97
2022-10-04T13:59:47.143Z,18.00
2022-10-04T14:02:54.973Z,17.99
2022-10-04T14:06:03.646Z,17.95
2022-10-04T14:09:12.312Z,17.97
2022-10-04T14:12:20.064Z,18.06
2022-10-04T14:15:28.623Z,18.13
2022-10-04T14:18:36.922Z,18.15
2022-10-04T14:21:45.226Z,18.15
2022-10-04T14:24:53.638Z,18.17
2022-10-04T14:28:01.832Z,18.24
2022-10-04T14:31:10.501Z,18.27
2022-10-04T14:34:18.801Z,18.29
2022-10-04T14:37:27.103Z,18.25
2022-10-04T14:40:35.474Z,18.28
2022-10-04T14:43:44.345Z,18.28
2022-10-04T14:46:52.577Z,18.29
2022-10-04T14:50:01.133Z,18.36
2022-10-04T14:53:09.429Z,18.39
2022-10-04T14:56:18.219Z,18.37
2022-10-04T14:59:26.201Z,18.42
2022-10-04T15:02:33.911Z,18.42
2022-10-04T15:05:42.571Z,18.37
2022-10-04T15:08:50.999Z,18.37
2022-10-04T15:15:04.692Z,18.34
2022-10-04T15:18:12.496Z,18.29
2022-10-04T15:21:20.999Z,18.27
2022-10-04T15:24:29.676Z,18.21
2022-10-04T15:27:37.590Z,18.15
2022-10-04T15:30:45.773Z,18.07
2022-10-04T15:33:54.092Z,17.99
2022-10-04T15:37:02.016Z,17.88
2022-10-04T15:40:10.609Z,17.81
2022-10-04T15:43:18.534Z,17.67
2022-10-04T15:46:26.630Z,17.51
2022-10-04T15:49:35.001Z,17.35
2022-10-04T15:52:43.017Z,17.23
2022-10-04T15:55:51.731Z,17.11
2022-10-04T15:58:59.966Z,17.04
2022-10-04T16:02:07.878Z,16.90
2022-10-04T16:05:16.068Z,16.80
2022-10-04T16:08:24.159Z,16.71
2022-10-04T16:11:32.464Z,16.60
2022-10-04T16:14:40.328Z,16.53
2022-10-04T16:17:48.306Z,16.44
2022-10-04T16:20:56.614Z,16.34
2022-10-04T16:24:04.540Z,16.20
2022-10-04T16:27:13.030Z,16.07
2022-10-04T16:30:27.253Z,15.96
2022-10-04T16:33:24.851Z,15.88
2022-10-04T16:36:33.231Z,15.76
2022-10-04T16:39:41.145Z,15.66
2022-10-04T16:42:49.053Z,15.38
2022-10-04T16:45:57.529Z,15.09
2022-10-04T16:49:05.345Z,14.83
2022-10-04T16:52:12.835Z,14.60
2022-10-04T16:55:22.009Z,14.35
2022-10-04T16:58:30.061Z,14.20
2022-10-04T17:01:38.609Z,14.04
2022-10-04T17:04:46.409Z,13.91
2022-10-04T17:07:54.983Z,13.80
2022-10-04T17:11:03.180Z,13.77
2022-10-04T17:14:11.342Z,13.71
2022-10-04T17:17:19.447Z,13.63
2022-10-04T17:20:27.520Z,13.59
2022-10-04T17:23:35.432Z,13.55
2022-10-04T17:26:44.383Z,13.56
2022-10-04T17:29:52.247Z,13.58
2022-10-04T17:33:01.089Z,13.55
2022-10-04T17:36:09.142Z,13.49
2022-10-04T17:39:16.933Z,13.40
2022-10-04T17:42:25.361Z,13.43
2022-10-04T17:45:33.434Z,13.41
2022-10-04T17:48:41.637Z,13.38
2022-10-04T17:51:50.045Z,13.36
2022-10-04T17:54:57.964Z,13.32
2022-10-04T17:58:06.329Z,13.29
2022-10-04T18:01:15.054Z,13.25
2022-10-04T18:04:22.692Z,13.18
2022-10-04T18:07:31.342Z,13.12
2022-10-04T18:10:39.912Z,13.04
2022-10-04T18:13:47.493Z,13.03
2022-10-04T18:16:56.240Z,13.02
2022-10-04T18:20:04.632Z,12.97
2022-10-04T18:23:12.899Z,12.97
2022-10-04T18:26:21.490Z,12.89
2022-10-04T18:29:29.520Z,12.87
2022-10-04T18:32:37.612Z,12.84
2022-10-04T18:35:45.724Z,12.82
2022-10-04T18:38:53.718Z,12.77
2022-10-04T18:42:01.946Z,12.74
2022-10-04T18:45:10.375Z,12.69
2022-10-04T18:48:18.431Z,12.67
2022-10-04T18:51:26.516Z,12.63
2022-10-04T18:54:34.697Z,12.59
2022-10-04T18:57:43.312Z,12.57
2022-10-04T19:00:51.350Z,12.56
2022-10-04T19:03:59.481Z,12.49
2022-10-04T19:07:07.951Z,12.48
2022-10-04T19:10:15.483Z,12.46
2022-10-04T19:13:23.983Z,12.44
2022-10-04T19:16:32.537Z,12.42
2022-10-04T19:19:40.014Z,12.39
2022-10-04T19:22:48.514Z,12.37
2022-10-04T19:26:26.137Z,12.30
2022-10-04T19:29:01.553Z,12.29
2022-10-04T19:32:09.896Z,12.26
2022-10-04T19:35:17.848Z,12.21
2022-10-04T19:38:25.789Z,12.20
2022-10-04T19:41:34.291Z,12.20
2022-10-04T19:44:42.840Z,12.16
2022-10-04T19:47:51.171Z,12.12
2022-10-04T19:50:59.721Z,12.05
2022-10-04T19:54:10.861Z,11.93
2022-10-04T19:57:10.890Z,11.87
2022-10-04T20:00:19.363Z,11.80
2022-10-04T20:03:27.744Z,11.75
2022-10-04T20:06:36.307Z,11.71
2022-10-04T20:09:44.826Z,11.72
2022-10-04T20:12:52.979Z,11.72
2022-10-04T20:16:01.136Z,11.70
2022-10-04T20:19:09.252Z,11.72
2022-10-04T20:22:17.728Z,11.64
2022-10-04T20:25:25.871Z,11.54
2022-10-04T20:28:34.053Z,11.56
2022-10-04T20:31:42.170Z,11.52
2022-10-04T20:34:50.304Z,11.41
2022-10-04T20:38:19.971Z,11.36
2022-10-04T20:41:03.344Z,11.32
2022-10-04T20:44:11.337Z,11.20
2022-10-04T20:47:19.667Z,11.16
2022-10-04T20:50:27.466Z,11.10
2022-10-04T20:53:35.565Z,11.02
2022-10-04T20:56:44.280Z,10.98
2022-10-04T20:59:51.884Z,10.95
2022-10-04T21:03:00.418Z,10.98
2022-10-04T21:06:08.788Z,10.86
2022-10-04T21:09:16.378Z,10.83
2022-10-04T21:12:24.601Z,10.76
2022-10-04T21:15:32.487Z,10.74
2022-10-04T21:18:40.418Z,10.70
2022-10-04T21:21:48.424Z,10.74
2022-10-04T21:24:56.525Z,10.74
2022-10-04T21:28:04.455Z,10.70
2022-10-04T21:31:12.650Z,10.68
2022-10-04T21:34:48.245Z,10.63
2022-10-04T21:37:25.576Z,10.66
2022-10-04T21:40:33.596Z,10.78
2022-10-04T21:43:41.578Z,10.91
2022-10-04T21:46:49.557Z,11.01
2022-10-04T21:49:57.608Z,11.13
2022-10-04T21:53:06.032Z,11.16
2022-10-04T21:56:13.959Z,11.21
2022-10-04T21:59:22.064Z,11.25
2022-10-04T22:02:30.292Z,11.32
2022-10-04T22:05:37.912Z,11.36
2022-10-04T22:08:46.215Z,11.49
2022-10-04T22:11:54.645Z,11.57
2022-10-04T22:15:02.208Z,11.59
2022-10-04T22:18:10.434Z,11.67
2022-10-04T22:21:18.357Z,11.71
2022-10-04T22:24:26.045Z,11.75
2022-10-04T22:27:34.286Z,11.86
2022-10-04T22:30:42.140Z,11.96
2022-10-04T22:33:49.909Z,11.96
2022-10-04T22:36:58.013Z,12.01
2022-10-04T22:40:05.548Z,11.96
2022-10-04T22:43:13.841Z,11.82
2022-10-04T22:46:21.478Z,11.78
2022-10-04T22:49:29.511Z,11.78
2022-10-04T22:52:37.482Z,11.78
2022-10-04T22:55:45.069Z,11.80
2022-10-04T22:58:53.076Z,11.82
2022-10-04T23:02:01.374Z,11.82
2022-10-04T23:05:09.650Z,11.80
2022-10-04T23:08:17.665Z,11.74
2022-10-04T23:11:25.196Z,11.78
2022-10-04T23:14:33.328Z,11.83
2022-10-04T23:17:40.939Z,11.85
2022-10-04T23:20:48.797Z,11.89
2022-10-04T23:23:56.782Z,11.82
2022-10-04T23:27:04.692Z,11.77
2022-10-04T23:30:12.225Z,11.72
2022-10-04T23:33:20.517Z,11.71
2022-10-04T23:36:28.131Z,11.70
2022-10-04T23:39:36.585Z,11.72
2022-10-04T23:42:44.903Z,11.78
2022-10-04T23:45:52.493Z,11.86
2022-10-04T23:49:00.647Z,11.86
2022-10-04T23:52:09.033Z,11.94
2022-10-04T23:55:16.529Z,12.04
2022-10-04T23:58:24.945Z,12.11
